Sheffield, Vermont
Current Conditions -  °F | °C
As of 2:35 AM on Thursday 23 Oct 2014 (Local Time) from KCDA Reporting Station
Overcast Overcast  
Wind Chill: 42°   Ceiling: 2000
Heat Index: 47°   Visibility: 10mi
Dew Point: 39°   Wind: 13mph
Humidity: 72%   Direction: 330°NNW
Pressure: 30.01"   Gusts: NA
Location:  44.6°N, 72.11°W
Report Text: KCDA 230635Z AUTO 33011KT 10SM OVC020 09/04 A3001 RMK AO2 T00850037
Loading
Personal Weather Stations






























Interactive Weather Map
Tropical Storm Tracking
New forecast layout! Learn more

10-Day Weather Forecast

Advertisements
Track Severe Weather on mobile